sensor_id;sensor_type;location;lat;lon;timestamp;pressure;altitude;pressure_sealevel;temperature;humidity
53116;BME280;39010;48.088;7.954;2022-11-11T00:00:41;100025.50;;;5.02;100.00
53116;BME280;39010;48.088;7.954;2022-11-11T00:03:26;100011.28;;;4.90;100.00
53116;BME280;39010;48.088;7.954;2022-11-11T00:06:14;100012.53;;;4.97;100.00
53116;BME280;39010;48.088;7.954;2022-11-11T00:08:59;100020.44;;;4.86;100.00
53116;BME280;39010;48.088;7.954;2022-11-11T00:11:45;100018.06;;;4.94;100.00
53116;BME280;39010;48.088;7.954;2022-11-11T00:14:30;100020.19;;;5.02;100.00
53116;BME280;39010;48.088;7.954;2022-11-11T00:17:15;100015.94;;;4.99;100.00
53116;BME280;39010;48.088;7.954;2022-11-11T00:20:19;100008.84;;;4.87;100.00
53116;BME280;39010;48.088;7.954;2022-11-11T00:23:28;100013.47;;;4.72;100.00
53116;BME280;39010;48.088;7.954;2022-11-11T00:26:32;100024.94;;;4.72;100.00
53116;BME280;39010;48.088;7.954;2022-11-11T00:29:24;100025.06;;;4.71;100.00
53116;BME280;39010;48.088;7.954;2022-11-11T00:32:09;100040.28;;;4.69;100.00
53116;BME280;39010;48.088;7.954;2022-11-11T00:35:15;100039.13;;;4.73;100.00
53116;BME280;39010;48.088;7.954;2022-11-11T00:38:19;100047.09;;;4.60;100.00
53116;BME280;39010;48.088;7.954;2022-11-11T00:41:24;100033.09;;;4.45;100.00
53116;BME280;39010;48.088;7.954;2022-11-11T00:44:11;100046.78;;;4.52;100.00
53116;BME280;39010;48.088;7.954;2022-11-11T00:46:56;100042.78;;;4.46;100.00
53116;BME280;39010;48.088;7.954;2022-11-11T00:50:00;100039.25;;;4.46;100.00
53116;BME280;39010;48.088;7.954;2022-11-11T00:53:09;100039.91;;;4.49;100.00
53116;BME280;39010;48.088;7.954;2022-11-11T00:55:55;100037.09;;;4.51;100.00
53116;BME280;39010;48.088;7.954;2022-11-11T00:58:42;100046.03;;;4.50;100.00
53116;BME280;39010;48.088;7.954;2022-11-11T01:01:27;100039.25;;;4.46;100.00
53116;BME280;39010;48.088;7.954;2022-11-11T01:04:12;100033.19;;;4.43;100.00
53116;BME280;39010;48.088;7.954;2022-11-11T01:06:57;100044.16;;;4.39;100.00
53116;BME280;39010;48.088;7.954;2022-11-11T01:09:42;100047.59;;;4.28;100.00
53116;BME280;39010;48.088;7.954;2022-11-11T01:12:27;100051.72;;;4.32;100.00
53116;BME280;39010;48.088;7.954;2022-11-11T01:15:12;100059.91;;;4.29;100.00
53116;BME280;39010;48.088;7.954;2022-11-11T01:17:57;100065.22;;;4.29;100.00
53116;BME280;39010;48.088;7.954;2022-11-11T01:20:42;100060.44;;;4.34;100.00
53116;BME280;39010;48.088;7.954;2022-11-11T01:23:29;100061.31;;;4.22;100.00
53116;BME280;39010;48.088;7.954;2022-11-11T01:26:17;100055.66;;;4.13;100.00
53116;BME280;39010;48.088;7.954;2022-11-11T01:29:02;100063.41;;;4.04;100.00
53116;BME280;39010;48.088;7.954;2022-11-11T01:31:47;100076.47;;;4.07;100.00
53116;BME280;39010;48.088;7.954;2022-11-11T01:34:32;100070.94;;;4.10;100.00
53116;BME280;39010;48.088;7.954;2022-11-11T01:37:17;100073.59;;;3.97;100.00
53116;BME280;39010;48.088;7.954;2022-11-11T01:40:02;100080.41;;;4.01;100.00
53116;BME280;39010;48.088;7.954;2022-11-11T01:42:50;100073.94;;;4.05;100.00
53116;BME280;39010;48.088;7.954;2022-11-11T01:45:52;100066.88;;;3.91;100.00
53116;BME280;39010;48.088;7.954;2022-11-11T01:48:48;100068.78;;;3.89;100.00
53116;BME280;39010;48.088;7.954;2022-11-11T01:52:23;100074.03;;;3.91;100.00
53116;BME280;39010;48.088;7.954;2022-11-11T01:55:18;100078.25;;;3.80;100.00
53116;BME280;39010;48.088;7.954;2022-11-11T01:58:08;100079.50;;;3.75;100.00
53116;BME280;39010;48.088;7.954;2022-11-11T02:00:57;100077.72;;;3.75;100.00
53116;BME280;39010;48.088;7.954;2022-11-11T02:03:45;100078.47;;;3.77;100.00
53116;BME280;39010;48.088;7.954;2022-11-11T02:06:57;100079.41;;;3.76;100.00
53116;BME280;39010;48.088;7.954;2022-11-11T02:09:45;100081.94;;;3.65;100.00
53116;BME280;39010;48.088;7.954;2022-11-11T02:12:31;100085.34;;;3.67;100.00
53116;BME280;39010;48.088;7.954;2022-11-11T02:15:36;100086.63;;;3.74;100.00
53116;BME280;39010;48.088;7.954;2022-11-11T02:18:21;100090.44;;;3.70;100.00
53116;BME280;39010;48.088;7.954;2022-11-11T02:21:10;100096.38;;;3.74;100.00
53116;BME280;39010;48.088;7.954;2022-11-11T02:24:02;100085.56;;;3.77;100.00
53116;BME280;39010;48.088;7.954;2022-11-11T02:26:49;100085.56;;;3.77;100.00
53116;BME280;39010;48.088;7.954;2022-11-11T02:29:45;100084.53;;;3.79;100.00
53116;BME280;39010;48.088;7.954;2022-11-11T02:32:31;100073.34;;;3.74;100.00
53116;BME280;39010;48.088;7.954;2022-11-11T02:35:24;100081.75;;;3.81;100.00
53116;BME280;39010;48.088;7.954;2022-11-11T02:38:10;100088.34;;;3.88;100.00
53116;BME280;39010;48.088;7.954;2022-11-11T02:40:56;100090.03;;;3.76;100.00
53116;BME280;39010;48.088;7.954;2022-11-11T02:44:00;100086.63;;;3.74;100.00
53116;BME280;39010;48.088;7.954;2022-11-11T02:46:45;100088.75;;;3.69;100.00
53116;BME280;39010;48.088;7.954;2022-11-11T02:49:30;100081.94;;;3.65;100.00
53116;BME280;39010;48.088;7.954;2022-11-11T02:52:15;100082.34;;;3.72;100.00
53116;BME280;39010;48.088;7.954;2022-11-11T02:55:01;100088.75;;;3.69;100.00
53116;BME280;39010;48.088;7.954;2022-11-11T02:57:46;100096.16;;;3.64;100.00
53116;BME280;39010;48.088;7.954;2022-11-11T03:00:32;100091.69;;;3.64;100.00
53116;BME280;39010;48.088;7.954;2022-11-11T03:03:17;100089.97;;;3.63;100.00
53116;BME280;39010;48.088;7.954;2022-11-11T03:06:02;100099.38;;;3.69;100.00
53116;BME280;39010;48.088;7.954;2022-11-11T03:08:48;100088.94;;;3.66;100.00
53116;BME280;39010;48.088;7.954;2022-11-11T03:11:33;100090.59;;;3.54;100.00
53116;BME280;39010;48.088;7.954;2022-11-11T03:14:22;100096.13;;;3.51;100.00
53116;BME280;39010;48.088;7.954;2022-11-11T03:17:11;100096.34;;;3.48;100.00
53116;BME280;39010;48.088;7.954;2022-11-11T03:20:16;100096.75;;;3.42;100.00
53116;BME280;39010;48.088;7.954;2022-11-11T03:23:20;100090.34;;;3.44;100.00
53116;BME280;39010;48.088;7.954;2022-11-11T03:26:07;100094.91;;;3.42;100.00
53116;BME280;39010;48.088;7.954;2022-11-11T03:28:53;100105.19;;;3.34;100.00
53116;BME280;39010;48.088;7.954;2022-11-11T03:31:38;100102.66;;;3.32;100.00
53116;BME280;39010;48.088;7.954;2022-11-11T03:34:23;100109.47;;;3.36;100.00
53116;BME280;39010;48.088;7.954;2022-11-11T03:37:09;100113.22;;;3.47;100.00
53116;BME280;39010;48.088;7.954;2022-11-11T03:40:14;100108.38;;;3.39;100.00
53116;BME280;39010;48.088;7.954;2022-11-11T03:42:59;100110.50;;;3.34;100.00
53116;BME280;39010;48.088;7.954;2022-11-11T03:45:50;100099.47;;;3.40;100.00
53116;BME280;39010;48.088;7.954;2022-11-11T03:48:36;100111.78;;;3.41;100.00
53116;BME280;39010;48.088;7.954;2022-11-11T03:51:21;100107.00;;;3.33;100.00
53116;BME280;39010;48.088;7.954;2022-11-11T03:54:06;100116.56;;;3.36;100.00
53116;BME280;39010;48.088;7.954;2022-11-11T03:56:52;100114.09;;;3.33;100.00
53116;BME280;39010;48.088;7.954;2022-11-11T03:59:37;100103.03;;;3.26;100.00
53116;BME280;39010;48.088;7.954;2022-11-11T04:02:22;100115.03;;;3.32;100.00
53116;BME280;39010;48.088;7.954;2022-11-11T04:05:26;100116.19;;;3.28;100.00
53116;BME280;39010;48.088;7.954;2022-11-11T04:08:30;100111.03;;;3.39;100.00
53116;BME280;39010;48.088;7.954;2022-11-11T04:11:40;100110.81;;;3.29;100.00
53116;BME280;39010;48.088;7.954;2022-11-11T04:14:26;100099.31;;;3.29;100.00
53116;BME280;39010;48.088;7.954;2022-11-11T04:17:29;100102.47;;;3.21;100.00
53116;BME280;39010;48.088;7.954;2022-11-11T04:20:15;100100.47;;;3.24;100.00
53116;BME280;39010;48.088;7.954;2022-11-11T04:23:19;100091.34;;;3.29;100.00
53116;BME280;39010;48.088;7.954;2022-11-11T04:26:04;100093.19;;;3.28;100.00
53116;BME280;39010;48.088;7.954;2022-11-11T04:28:50;100086.63;;;3.19;100.00
53116;BME280;39010;48.088;7.954;2022-11-11T04:34:59;100086.09;;;3.14;100.00
53116;BME280;39010;48.088;7.954;2022-11-11T04:37:47;100084.09;;;3.18;100.00
53116;BME280;39010;48.088;7.954;2022-11-11T04:40:35;100082.03;;;3.08;100.00
53116;BME280;39010;48.088;7.954;2022-11-11T04:43:39;100084.19;;;3.16;100.00
53116;BME280;39010;48.088;7.954;2022-11-11T04:46:43;100076.91;;;3.20;100.00
53116;BME280;39010;48.088;7.954;2022-11-11T04:49:27;100074.16;;;3.07;100.00
53116;BME280;39010;48.088;7.954;2022-11-11T04:52:13;100076.72;;;3.08;100.00
53116;BME280;39010;48.088;7.954;2022-11-11T04:55:10;100078.53;;;3.08;100.00
53116;BME280;39010;48.088;7.954;2022-11-11T04:58:18;100071.50;;;3.07;100.00
53116;BME280;39010;48.088;7.954;2022-11-11T05:01:03;100071.81;;;3.02;100.00
53116;BME280;39010;48.088;7.954;2022-11-11T05:03:48;100068.25;;;3.16;100.00
53116;BME280;39010;48.088;7.954;2022-11-11T05:06:33;100071.88;;;3.15;100.00
53116;BME280;39010;48.088;7.954;2022-11-11T05:09:43;100090.03;;;3.21;100.00
53116;BME280;39010;48.088;7.954;2022-11-11T05:12:28;100096.53;;;3.03;100.00
53116;BME280;39010;48.088;7.954;2022-11-11T05:15:13;100102.59;;;3.05;100.00
53116;BME280;39010;48.088;7.954;2022-11-11T05:18:17;100115.47;;;3.11;100.00
53116;BME280;39010;48.088;7.954;2022-11-11T05:21:25;100127.97;;;3.09;100.00
53116;BME280;39010;48.088;7.954;2022-11-11T05:24:11;100130.94;;;3.04;100.00
53116;BME280;39010;48.088;7.954;2022-11-11T05:27:15;100137.28;;;3.02;100.00
53116;BME280;39010;48.088;7.954;2022-11-11T05:30:00;100142.88;;;2.97;100.00
53116;BME280;39010;48.088;7.954;2022-11-11T05:32:46;100157.00;;;2.98;100.00
53116;BME280;39010;48.088;7.954;2022-11-11T05:35:31;100151.50;;;3.01;100.00
53116;BME280;39010;48.088;7.954;2022-11-11T05:38:16;100159.81;;;3.09;100.00
53116;BME280;39010;48.088;7.954;2022-11-11T05:41:04;100161.53;;;3.10;100.00
53116;BME280;39010;48.088;7.954;2022-11-11T05:43:50;100153.84;;;3.20;100.00
53116;BME280;39010;48.088;7.954;2022-11-11T05:46:35;100162.28;;;3.12;100.00
53116;BME280;39010;48.088;7.954;2022-11-11T05:49:20;100163.81;;;3.16;100.00
53116;BME280;39010;48.088;7.954;2022-11-11T05:52:08;100180.03;;;3.12;100.00
53116;BME280;39010;48.088;7.954;2022-11-11T05:54:54;100173.00;;;3.11;100.00
53116;BME280;39010;48.088;7.954;2022-11-11T05:57:39;100173.66;;;3.14;100.00
53116;BME280;39010;48.088;7.954;2022-11-11T06:00:24;100178.41;;;3.09;100.00
53116;BME280;39010;48.088;7.954;2022-11-11T06:03:10;100178.41;;;3.09;100.00
53116;BME280;39010;48.088;7.954;2022-11-11T06:05:55;100178.00;;;3.15;100.00
53116;BME280;39010;48.088;7.954;2022-11-11T06:08:40;100175.94;;;3.06;100.00
53116;BME280;39010;48.088;7.954;2022-11-11T06:11:28;100181.63;;;3.14;100.00
53116;BME280;39010;48.088;7.954;2022-11-11T06:14:17;100181.06;;;3.09;100.00
53116;BME280;39010;48.088;7.954;2022-11-11T06:17:02;100188.25;;;3.07;100.00
53116;BME280;39010;48.088;7.954;2022-11-11T06:19:47;100189.13;;;3.07;100.00
53116;BME280;39010;48.088;7.954;2022-11-11T06:22:33;100195.28;;;3.08;100.00
53116;BME280;39010;48.088;7.954;2022-11-11T06:25:37;100203.41;;;3.05;100.00
53116;BME280;39010;48.088;7.954;2022-11-11T06:28:54;100209.28;;;3.10;100.00
53116;BME280;39010;48.088;7.954;2022-11-11T06:31:40;100216.59;;;3.21;100.00
53116;BME280;39010;48.088;7.954;2022-11-11T06:34:25;100219.53;;;3.31;100.00
53116;BME280;39010;48.088;7.954;2022-11-11T06:37:09;100214.34;;;3.15;100.00
53116;BME280;39010;48.088;7.954;2022-11-11T06:39:54;100225.50;;;3.20;100.00
53116;BME280;39010;48.088;7.954;2022-11-11T06:42:39;100222.75;;;3.21;100.00
53116;BME280;39010;48.088;7.954;2022-11-11T06:45:26;100225.72;;;3.17;100.00
53116;BME280;39010;48.088;7.954;2022-11-11T06:48:11;100223.13;;;3.15;100.00
53116;BME280;39010;48.088;7.954;2022-11-11T06:51:03;100227.03;;;3.24;100.00
53116;BME280;39010;48.088;7.954;2022-11-11T06:53:52;100239.53;;;3.22;100.00
53116;BME280;39010;48.088;7.954;2022-11-11T06:56:38;100229.94;;;3.34;100.00
53116;BME280;39010;48.088;7.954;2022-11-11T06:59:23;100237.91;;;3.34;100.00
53116;BME280;39010;48.088;7.954;2022-11-11T07:02:12;100236.00;;;3.36;100.00
53116;BME280;39010;48.088;7.954;2022-11-11T07:04:59;100232.22;;;3.40;100.00
53116;BME280;39010;48.088;7.954;2022-11-11T07:07:45;100236.00;;;3.50;100.00
53116;BME280;39010;48.088;7.954;2022-11-11T07:10:33;100230.19;;;3.58;100.00
53116;BME280;39010;48.088;7.954;2022-11-11T07:13:18;100221.16;;;3.75;100.00
53116;BME280;39010;48.088;7.954;2022-11-11T07:16:03;100226.16;;;3.80;100.00
53116;BME280;39010;48.088;7.954;2022-11-11T07:18:48;100222.66;;;3.79;100.00
53116;BME280;39010;48.088;7.954;2022-11-11T07:21:33;100229.28;;;3.87;100.00
53116;BME280;39010;48.088;7.954;2022-11-11T07:24:18;100215.78;;;3.90;100.00
53116;BME280;39010;48.088;7.954;2022-11-11T07:27:03;100227.06;;;3.93;100.00
53116;BME280;39010;48.088;7.954;2022-11-11T07:29:48;100225.41;;;4.05;100.00
53116;BME280;39010;48.088;7.954;2022-11-11T07:32:34;100219.34;;;4.03;100.00
53116;BME280;39010;48.088;7.954;2022-11-11T07:35:20;100227.97;;;4.07;100.00
53116;BME280;39010;48.088;7.954;2022-11-11T07:38:06;100221.19;;;4.16;100.00
53116;BME280;39010;48.088;7.954;2022-11-11T07:40:51;100224.63;;;4.18;100.00
53116;BME280;39010;48.088;7.954;2022-11-11T07:43:36;100227.47;;;4.15;100.00
53116;BME280;39010;48.088;7.954;2022-11-11T07:46:21;100231.38;;;4.36;100.00
53116;BME280;39010;48.088;7.954;2022-11-11T07:49:06;100237.44;;;4.38;100.00
53116;BME280;39010;48.088;7.954;2022-11-11T07:51:51;100232.41;;;4.47;100.00
53116;BME280;39010;48.088;7.954;2022-11-11T07:54:36;100238.47;;;4.49;100.00
53116;BME280;39010;48.088;7.954;2022-11-11T07:57:21;100236.56;;;4.51;100.00
53116;BME280;39010;48.088;7.954;2022-11-11T08:00:07;100237.78;;;4.60;100.00
53116;BME280;39010;48.088;7.954;2022-11-11T08:02:52;100235.03;;;4.74;100.00
53116;BME280;39010;48.088;7.954;2022-11-11T08:05:43;100233.44;;;4.84;100.00
53116;BME280;39010;48.088;7.954;2022-11-11T08:08:29;100235.66;;;4.78;100.00
53116;BME280;39010;48.088;7.954;2022-11-11T08:11:16;100243.34;;;4.82;100.00
53116;BME280;39010;48.088;7.954;2022-11-11T08:14:01;100248.53;;;4.84;100.00
53116;BME280;39010;48.088;7.954;2022-11-11T08:16:46;100242.59;;;4.93;100.00
53116;BME280;39010;48.088;7.954;2022-11-11T08:19:32;100248.88;;;5.05;100.00
53116;BME280;39010;48.088;7.954;2022-11-11T08:22:17;100235.44;;;5.07;100.00
53116;BME280;39010;48.088;7.954;2022-11-11T08:25:04;100243.44;;;5.20;100.00
53116;BME280;39010;48.088;7.954;2022-11-11T08:28:00;100239.78;;;5.34;100.00
53116;BME280;39010;48.088;7.954;2022-11-11T08:30:46;100236.56;;;5.41;100.00
53116;BME280;39010;48.088;7.954;2022-11-11T08:33:33;100237.75;;;5.50;100.00
53116;BME280;39010;48.088;7.954;2022-11-11T08:36:19;100237.53;;;5.40;100.00
53116;BME280;39010;48.088;7.954;2022-11-11T08:39:05;100239.00;;;5.57;100.00
53116;BME280;39010;48.088;7.954;2022-11-11T08:41:51;100237.25;;;5.69;100.00
53116;BME280;39010;48.088;7.954;2022-11-11T08:44:36;100241.47;;;5.85;100.00
53116;BME280;39010;48.088;7.954;2022-11-11T08:47:21;100236.94;;;5.74;100.00
53116;BME280;39010;48.088;7.954;2022-11-11T08:50:08;100232.06;;;6.05;100.00
53116;BME280;39010;48.088;7.954;2022-11-11T08:52:54;100239.25;;;6.16;100.00
53116;BME280;39010;48.088;7.954;2022-11-11T08:55:39;100238.19;;;6.30;100.00
53116;BME280;39010;48.088;7.954;2022-11-11T08:58:24;100236.94;;;6.47;100.00
53116;BME280;39010;48.088;7.954;2022-11-11T09:01:10;100238.72;;;6.71;100.00
53116;BME280;39010;48.088;7.954;2022-11-11T09:03:56;100222.13;;;6.90;100.00
53116;BME280;39010;48.088;7.954;2022-11-11T09:06:55;100228.69;;;7.08;100.00
53116;BME280;39010;48.088;7.954;2022-11-11T09:09:40;100234.88;;;7.20;100.00
53116;BME280;39010;48.088;7.954;2022-11-11T09:12:25;100220.69;;;7.31;100.00
53116;BME280;39010;48.088;7.954;2022-11-11T09:15:11;100225.53;;;7.49;100.00
53116;BME280;39010;48.088;7.954;2022-11-11T09:17:57;100225.75;;;7.57;100.00
53116;BME280;39010;48.088;7.954;2022-11-11T09:20:43;100236.41;;;7.80;100.00
53116;BME280;39010;48.088;7.954;2022-11-11T09:23:28;100224.66;;;8.04;100.00
53116;BME280;39010;48.088;7.954;2022-11-11T09:26:14;100232.69;;;8.36;100.00
53116;BME280;39010;48.088;7.954;2022-11-11T09:28:59;100233.47;;;8.60;100.00
53116;BME280;39010;48.088;7.954;2022-11-11T09:31:45;100225.44;;;8.81;100.00
53116;BME280;39010;48.088;7.954;2022-11-11T09:34:31;100228.47;;;9.19;99.54
53116;BME280;39010;48.088;7.954;2022-11-11T09:37:16;100223.09;;;9.50;98.90
53116;BME280;39010;48.088;7.954;2022-11-11T09:40:02;100224.13;;;9.68;98.36
53116;BME280;39010;48.088;7.954;2022-11-11T09:42:54;100228.88;;;10.45;94.56
53116;BME280;39010;48.088;7.954;2022-11-11T09:51:54;100214.47;;;11.13;89.02
53116;BME280;39010;48.088;7.954;2022-11-11T09:54:50;100214.53;;;10.94;87.06
53116;BME280;39010;48.088;7.954;2022-11-11T09:57:39;100215.84;;;11.17;85.52
53116;BME280;39010;48.088;7.954;2022-11-11T10:00:28;100214.09;;;11.36;81.88
53116;BME280;39010;48.088;7.954;2022-11-11T10:03:17;100214.31;;;11.15;82.60
53116;BME280;39010;48.088;7.954;2022-11-11T10:06:14;100215.44;;;10.35;85.89
53116;BME280;39010;48.088;7.954;2022-11-11T10:12:12;100204.00;;;11.10;83.39
53116;BME280;39010;48.088;7.954;2022-11-11T10:14:59;100198.25;;;11.33;83.68
53116;BME280;39010;48.088;7.954;2022-11-11T10:18:04;100197.50;;;11.41;83.75
53116;BME280;39010;48.088;7.954;2022-11-11T10:21:00;100182.22;;;11.13;87.53
53116;BME280;39010;48.088;7.954;2022-11-11T10:23:51;100186.78;;;11.03;87.04
53116;BME280;39010;48.088;7.954;2022-11-11T10:26:42;100186.25;;;10.80;88.79
53116;BME280;39010;48.088;7.954;2022-11-11T10:29:37;100180.00;;;10.89;86.08
53116;BME280;39010;48.088;7.954;2022-11-11T10:32:26;100190.81;;;10.79;87.61
53116;BME280;39010;48.088;7.954;2022-11-11T10:35:23;100183.69;;;10.98;86.67
53116;BME280;39010;48.088;7.954;2022-11-11T10:38:44;100180.88;;;10.89;86.18
53116;BME280;39010;48.088;7.954;2022-11-11T10:41:48;100183.16;;;10.74;86.09
53116;BME280;39010;48.088;7.954;2022-11-11T10:44:37;100177.22;;;10.81;86.86
53116;BME280;39010;48.088;7.954;2022-11-11T10:50:37;100166.09;;;11.13;87.72
53116;BME280;39010;48.088;7.954;2022-11-11T10:53:30;100173.06;;;11.34;82.61
53116;BME280;39010;48.088;7.954;2022-11-11T10:56:28;100164.28;;;11.04;87.08
53116;BME280;39010;48.088;7.954;2022-11-11T10:59:27;100156.16;;;11.42;84.85
53116;BME280;39010;48.088;7.954;2022-11-11T11:02:22;100155.78;;;11.37;86.71
53116;BME280;39010;48.088;7.954;2022-11-11T11:05:24;100148.97;;;11.14;87.08
53116;BME280;39010;48.088;7.954;2022-11-11T11:08:21;100144.28;;;11.16;84.42
53116;BME280;39010;48.088;7.954;2022-11-11T11:11:22;100148.41;;;11.39;83.32
53116;BME280;39010;48.088;7.954;2022-11-11T11:14:18;100145.47;;;11.32;84.07
53116;BME280;39010;48.088;7.954;2022-11-11T11:17:12;100143.78;;;11.31;83.69
53116;BME280;39010;48.088;7.954;2022-11-11T11:20:18;100152.06;;;11.19;85.44
53116;BME280;39010;48.088;7.954;2022-11-11T11:23:04;100143.47;;;11.06;86.56
53116;BME280;39010;48.088;7.954;2022-11-11T11:25:53;100151.97;;;11.01;87.29
53116;BME280;39010;48.088;7.954;2022-11-11T11:28:57;100152.91;;;10.82;90.44
53116;BME280;39010;48.088;7.954;2022-11-11T11:31:43;100153.31;;;10.87;90.79
53116;BME280;39010;48.088;7.954;2022-11-11T11:34:49;100144.66;;;10.94;92.50
53116;BME280;39010;48.088;7.954;2022-11-11T11:37:49;100149.25;;;11.39;89.78
53116;BME280;39010;48.088;7.954;2022-11-11T11:40:53;100150.38;;;11.83;88.11
53116;BME280;39010;48.088;7.954;2022-11-11T11:43:41;100155.22;;;11.79;86.38
53116;BME280;39010;48.088;7.954;2022-11-11T11:46:36;100158.00;;;11.87;86.94
53116;BME280;39010;48.088;7.954;2022-11-11T11:52:42;100159.69;;;12.43;81.90
53116;BME280;39010;48.088;7.954;2022-11-11T11:55:36;100157.75;;;11.81;82.18
53116;BME280;39010;48.088;7.954;2022-11-11T11:58:36;100158.22;;;12.30;83.23
53116;BME280;39010;48.088;7.954;2022-11-11T12:01:59;100147.94;;;12.26;81.23
53116;BME280;39010;48.088;7.954;2022-11-11T12:10:52;100156.47;;;12.65;81.29
53116;BME280;39010;48.088;7.954;2022-11-11T12:14:02;100149.22;;;12.40;80.25
53116;BME280;39010;48.088;7.954;2022-11-11T12:17:19;100147.28;;;12.50;80.51
53116;BME280;39010;48.088;7.954;2022-11-11T12:26:48;100146.22;;;12.43;78.75
53116;BME280;39010;48.088;7.954;2022-11-11T12:35:47;100138.59;;;12.38;80.08
53116;BME280;39010;48.088;7.954;2022-11-11T12:42:02;100126.97;;;12.37;79.25
53116;BME280;39010;48.088;7.954;2022-11-11T12:45:12;100124.66;;;12.43;80.90
53116;BME280;39010;48.088;7.954;2022-11-11T12:48:23;100120.03;;;12.53;78.93
53116;BME280;39010;48.088;7.954;2022-11-11T12:54:36;100119.06;;;12.62;77.93
53116;BME280;39010;48.088;7.954;2022-11-11T13:04:44;100100.66;;;12.84;82.35
53116;BME280;39010;48.088;7.954;2022-11-11T13:07:58;100100.81;;;12.82;82.62
53116;BME280;39010;48.088;7.954;2022-11-11T13:11:13;100101.91;;;12.63;84.90
53116;BME280;39010;48.088;7.954;2022-11-11T13:17:31;100096.16;;;12.58;86.98
53116;BME280;39010;48.088;7.954;2022-11-11T13:20:49;100105.88;;;12.51;88.10
53116;BME280;39010;48.088;7.954;2022-11-11T13:23:37;100101.34;;;12.60;88.54
53116;BME280;39010;48.088;7.954;2022-11-11T13:26:27;100101.09;;;12.71;89.62
53116;BME280;39010;48.088;7.954;2022-11-11T13:32:15;100097.78;;;12.86;88.81
53116;BME280;39010;48.088;7.954;2022-11-11T13:35:32;100094.03;;;13.05;87.54
53116;BME280;39010;48.088;7.954;2022-11-11T13:38:38;100102.44;;;13.02;87.01
53116;BME280;39010;48.088;7.954;2022-11-11T13:41:35;100095.66;;;12.98;87.55
53116;BME280;39010;48.088;7.954;2022-11-11T13:44:48;100097.06;;;13.10;87.11
53116;BME280;39010;48.088;7.954;2022-11-11T13:47:37;100099.91;;;13.08;84.08
53116;BME280;39010;48.088;7.954;2022-11-11T13:50:37;100101.47;;;13.27;83.52
53116;BME280;39010;48.088;7.954;2022-11-11T13:53:31;100105.13;;;13.02;82.61
53116;BME280;39010;48.088;7.954;2022-11-11T13:56:39;100089.22;;;13.33;80.96
53116;BME280;39010;48.088;7.954;2022-11-11T13:59:30;100098.09;;;13.17;83.78
53116;BME280;39010;48.088;7.954;2022-11-11T14:07:52;100100.38;;;12.95;87.44
53116;BME280;39010;48.088;7.954;2022-11-11T14:10:43;100098.91;;;13.09;87.64
53116;BME280;39010;48.088;7.954;2022-11-11T14:13:38;100095.03;;;13.04;86.56
53116;BME280;39010;48.088;7.954;2022-11-11T14:22:28;100095.59;;;13.24;86.31
53116;BME280;39010;48.088;7.954;2022-11-11T14:25:25;100093.41;;;13.27;86.69
53116;BME280;39010;48.088;7.954;2022-11-11T14:31:30;100098.06;;;13.09;89.85
53116;BME280;39010;48.088;7.954;2022-11-11T14:34:38;100093.41;;;13.19;87.44
53116;BME280;39010;48.088;7.954;2022-11-11T14:40:40;100093.31;;;13.46;88.72
53116;BME280;39010;48.088;7.954;2022-11-11T14:43:37;100095.91;;;13.89;87.89
53116;BME280;39010;48.088;7.954;2022-11-11T14:46:24;100090.66;;;13.70;88.18
53116;BME280;39010;48.088;7.954;2022-11-11T14:49:09;100088.09;;;13.61;89.87
53116;BME280;39010;48.088;7.954;2022-11-11T14:51:57;100090.47;;;13.64;88.70
53116;BME280;39010;48.088;7.954;2022-11-11T14:58:32;100092.13;;;13.48;86.92
53116;BME280;39010;48.088;7.954;2022-11-11T15:03:59;100104.69;;;13.23;87.13
53116;BME280;39010;48.088;7.954;2022-11-11T15:13:01;100117.72;;;12.40;92.88
53116;BME280;39010;48.088;7.954;2022-11-11T15:22:40;100123.31;;;11.66;99.58
53116;BME280;39010;48.088;7.954;2022-11-11T15:34:42;100126.84;;;10.35;100.00
53116;BME280;39010;48.088;7.954;2022-11-11T15:37:29;100134.75;;;10.17;100.00
53116;BME280;39010;48.088;7.954;2022-11-11T15:40:19;100129.56;;;10.15;100.00
53116;BME280;39010;48.088;7.954;2022-11-11T15:43:05;100138.44;;;10.16;100.00
53116;BME280;39010;48.088;7.954;2022-11-11T15:46:01;100132.66;;;10.01;100.00
53116;BME280;39010;48.088;7.954;2022-11-11T15:48:47;100129.41;;;10.07;100.00
53116;BME280;39010;48.088;7.954;2022-11-11T15:51:32;100154.28;;;9.90;100.00
53116;BME280;39010;48.088;7.954;2022-11-11T15:54:19;100145.06;;;9.72;100.00
53116;BME280;39010;48.088;7.954;2022-11-11T15:57:22;100142.81;;;9.58;100.00
53116;BME280;39010;48.088;7.954;2022-11-11T16:00:28;100139.28;;;9.57;100.00
53116;BME280;39010;48.088;7.954;2022-11-11T16:03:17;100146.72;;;9.44;100.00
53116;BME280;39010;48.088;7.954;2022-11-11T16:06:08;100146.00;;;9.32;100.00
53116;BME280;39010;48.088;7.954;2022-11-11T16:08:54;100138.63;;;9.14;100.00
53116;BME280;39010;48.088;7.954;2022-11-11T16:11:41;100141.25;;;9.05;100.00
53116;BME280;39010;48.088;7.954;2022-11-11T16:14:41;100145.06;;;9.02;100.00
53116;BME280;39010;48.088;7.954;2022-11-11T16:17:33;100135.94;;;8.83;100.00
53116;BME280;39010;48.088;7.954;2022-11-11T16:20:26;100148.31;;;8.75;100.00
53116;BME280;39010;48.088;7.954;2022-11-11T16:23:16;100139.38;;;8.64;100.00
53116;BME280;39010;48.088;7.954;2022-11-11T16:26:02;100141.72;;;8.58;100.00
53116;BME280;39010;48.088;7.954;2022-11-11T16:28:54;100146.81;;;8.39;100.00
53116;BME280;39010;48.088;7.954;2022-11-11T16:31:42;100149.28;;;8.31;100.00
53116;BME280;39010;48.088;7.954;2022-11-11T16:34:33;100149.56;;;8.28;100.00
53116;BME280;39010;48.088;7.954;2022-11-11T16:37:20;100142.09;;;8.32;100.00
53116;BME280;39010;48.088;7.954;2022-11-11T16:43:22;100147.44;;;8.10;100.00